sensor_id;sensor_type;location;lat;lon;timestamp;P1;durP1;ratioP1;P2;durP2;ratioP2
12900;SDS011;6518;50.930;5.344;2024-01-30T00:00:06;12.00;;;7.60;;
12900;SDS011;6518;50.930;5.344;2024-01-30T00:02:34;8.50;;;7.07;;
12900;SDS011;6518;50.930;5.344;2024-01-30T00:05:01;9.03;;;6.93;;
12900;SDS011;6518;50.930;5.344;2024-01-30T00:07:31;9.30;;;6.87;;
12900;SDS011;6518;50.930;5.344;2024-01-30T00:09:58;8.57;;;7.00;;
12900;SDS011;6518;50.930;5.344;2024-01-30T00:12:25;8.17;;;7.20;;
12900;SDS011;6518;50.930;5.344;2024-01-30T00:14:52;8.67;;;6.97;;
12900;SDS011;6518;50.930;5.344;2024-01-30T00:17:19;8.80;;;6.83;;
12900;SDS011;6518;50.930;5.344;2024-01-30T00:19:47;9.37;;;7.00;;
12900;SDS011;6518;50.930;5.344;2024-01-30T00:22:14;8.13;;;6.57;;
12900;SDS011;6518;50.930;5.344;2024-01-30T00:24:42;7.13;;;6.23;;
12900;SDS011;6518;50.930;5.344;2024-01-30T00:27:09;9.03;;;7.20;;
12900;SDS011;6518;50.930;5.344;2024-01-30T00:29:36;9.50;;;7.23;;
12900;SDS011;6518;50.930;5.344;2024-01-30T00:32:03;9.57;;;6.57;;
12900;SDS011;6518;50.930;5.344;2024-01-30T00:34:30;6.90;;;6.10;;
12900;SDS011;6518;50.930;5.344;2024-01-30T00:36:57;8.77;;;6.60;;
12900;SDS011;6518;50.930;5.344;2024-01-30T00:39:24;8.70;;;6.57;;
12900;SDS011;6518;50.930;5.344;2024-01-30T00:41:52;7.80;;;6.23;;
12900;SDS011;6518;50.930;5.344;2024-01-30T00:44:19;10.63;;;6.90;;
12900;SDS011;6518;50.930;5.344;2024-01-30T00:46:46;9.67;;;7.13;;
12900;SDS011;6518;50.930;5.344;2024-01-30T00:49:13;8.70;;;6.50;;
12900;SDS011;6518;50.930;5.344;2024-01-30T00:51:40;8.60;;;6.63;;
12900;SDS011;6518;50.930;5.344;2024-01-30T00:54:07;8.60;;;6.47;;
12900;SDS011;6518;50.930;5.344;2024-01-30T00:56:34;9.07;;;5.90;;
12900;SDS011;6518;50.930;5.344;2024-01-30T00:59:03;9.80;;;6.50;;
12900;SDS011;6518;50.930;5.344;2024-01-30T01:01:29;10.93;;;6.23;;
12900;SDS011;6518;50.930;5.344;2024-01-30T01:03:56;6.67;;;5.63;;
12900;SDS011;6518;50.930;5.344;2024-01-30T01:06:23;9.00;;;6.63;;
12900;SDS011;6518;50.930;5.344;2024-01-30T01:08:50;7.90;;;6.00;;
12900;SDS011;6518;50.930;5.344;2024-01-30T01:11:17;8.77;;;6.30;;
12900;SDS011;6518;50.930;5.344;2024-01-30T01:13:44;8.93;;;6.33;;
12900;SDS011;6518;50.930;5.344;2024-01-30T01:16:13;7.87;;;6.03;;
12900;SDS011;6518;50.930;5.344;2024-01-30T01:18:39;7.77;;;6.40;;
12900;SDS011;6518;50.930;5.344;2024-01-30T01:21:06;11.10;;;6.43;;
12900;SDS011;6518;50.930;5.344;2024-01-30T01:23:33;8.47;;;6.50;;
12900;SDS011;6518;50.930;5.344;2024-01-30T01:26:00;8.80;;;6.33;;
12900;SDS011;6518;50.930;5.344;2024-01-30T01:28:27;8.93;;;5.97;;
12900;SDS011;6518;50.930;5.344;2024-01-30T01:30:54;6.90;;;6.03;;
12900;SDS011;6518;50.930;5.344;2024-01-30T01:33:25;6.77;;;5.87;;
12900;SDS011;6518;50.930;5.344;2024-01-30T01:35:52;8.97;;;6.33;;
12900;SDS011;6518;50.930;5.344;2024-01-30T01:38:19;9.33;;;6.27;;
12900;SDS011;6518;50.930;5.344;2024-01-30T01:40:46;7.03;;;5.77;;
12900;SDS011;6518;50.930;5.344;2024-01-30T01:43:13;8.03;;;6.33;;
12900;SDS011;6518;50.930;5.344;2024-01-30T01:45:40;8.07;;;5.70;;
12900;SDS011;6518;50.930;5.344;2024-01-30T01:48:07;7.60;;;5.50;;
12900;SDS011;6518;50.930;5.344;2024-01-30T01:50:36;7.10;;;5.33;;
12900;SDS011;6518;50.930;5.344;2024-01-30T01:53:03;7.43;;;5.80;;
12900;SDS011;6518;50.930;5.344;2024-01-30T01:55:33;13.73;;;5.87;;
12900;SDS011;6518;50.930;5.344;2024-01-30T01:58:01;7.77;;;6.10;;
12900;SDS011;6518;50.930;5.344;2024-01-30T02:00:28;8.97;;;6.27;;
12900;SDS011;6518;50.930;5.344;2024-01-30T02:02:56;7.43;;;6.27;;
12900;SDS011;6518;50.930;5.344;2024-01-30T02:05:23;8.27;;;5.60;;
12900;SDS011;6518;50.930;5.344;2024-01-30T02:07:52;6.70;;;5.37;;
12900;SDS011;6518;50.930;5.344;2024-01-30T02:10:19;8.93;;;5.80;;
12900;SDS011;6518;50.930;5.344;2024-01-30T02:12:46;9.27;;;5.90;;
12900;SDS011;6518;50.930;5.344;2024-01-30T02:15:14;6.53;;;5.07;;
12900;SDS011;6518;50.930;5.344;2024-01-30T02:17:41;6.40;;;5.53;;
12900;SDS011;6518;50.930;5.344;2024-01-30T02:20:09;8.30;;;5.33;;
12900;SDS011;6518;50.930;5.344;2024-01-30T02:22:37;6.17;;;5.33;;
12900;SDS011;6518;50.930;5.344;2024-01-30T02:25:07;7.83;;;5.47;;
12900;SDS011;6518;50.930;5.344;2024-01-30T02:27:34;6.30;;;5.07;;
12900;SDS011;6518;50.930;5.344;2024-01-30T02:30:01;6.10;;;5.20;;
12900;SDS011;6518;50.930;5.344;2024-01-30T02:32:28;8.83;;;5.77;;
12900;SDS011;6518;50.930;5.344;2024-01-30T02:34:55;8.97;;;5.70;;
12900;SDS011;6518;50.930;5.344;2024-01-30T02:37:22;6.07;;;5.27;;
12900;SDS011;6518;50.930;5.344;2024-01-30T02:39:50;9.30;;;5.60;;
12900;SDS011;6518;50.930;5.344;2024-01-30T02:42:17;8.43;;;5.63;;
12900;SDS011;6518;50.930;5.344;2024-01-30T02:44:44;7.23;;;5.33;;
12900;SDS011;6518;50.930;5.344;2024-01-30T02:47:11;6.77;;;5.50;;
12900;SDS011;6518;50.930;5.344;2024-01-30T02:49:37;7.30;;;4.90;;
12900;SDS011;6518;50.930;5.344;2024-01-30T02:52:05;9.60;;;5.07;;
12900;SDS011;6518;50.930;5.344;2024-01-30T02:54:31;5.57;;;4.97;;
12900;SDS011;6518;50.930;5.344;2024-01-30T02:57:00;6.57;;;5.03;;
12900;SDS011;6518;50.930;5.344;2024-01-30T02:59:27;7.63;;;4.87;;
12900;SDS011;6518;50.930;5.344;2024-01-30T03:01:53;6.10;;;5.07;;
12900;SDS011;6518;50.930;5.344;2024-01-30T03:04:21;7.03;;;5.27;;
12900;SDS011;6518;50.930;5.344;2024-01-30T03:06:47;9.10;;;5.33;;
12900;SDS011;6518;50.930;5.344;2024-01-30T03:09:16;8.57;;;5.00;;
12900;SDS011;6518;50.930;5.344;2024-01-30T03:11:43;7.90;;;5.60;;
12900;SDS011;6518;50.930;5.344;2024-01-30T03:14:12;6.83;;;5.07;;
12900;SDS011;6518;50.930;5.344;2024-01-30T03:16:39;7.80;;;5.77;;
12900;SDS011;6518;50.930;5.344;2024-01-30T03:19:06;9.93;;;5.50;;
12900;SDS011;6518;50.930;5.344;2024-01-30T03:21:34;8.10;;;5.10;;
12900;SDS011;6518;50.930;5.344;2024-01-30T03:24:01;5.97;;;4.70;;
12900;SDS011;6518;50.930;5.344;2024-01-30T03:26:28;9.20;;;4.90;;
12900;SDS011;6518;50.930;5.344;2024-01-30T03:28:55;6.13;;;4.53;;
12900;SDS011;6518;50.930;5.344;2024-01-30T03:31:24;9.37;;;5.27;;
12900;SDS011;6518;50.930;5.344;2024-01-30T03:33:51;8.40;;;5.00;;
12900;SDS011;6518;50.930;5.344;2024-01-30T03:36:19;8.97;;;5.27;;
12900;SDS011;6518;50.930;5.344;2024-01-30T03:38:46;5.33;;;4.77;;
12900;SDS011;6518;50.930;5.344;2024-01-30T03:41:13;6.03;;;4.60;;
12900;SDS011;6518;50.930;5.344;2024-01-30T03:43:40;7.60;;;5.00;;
12900;SDS011;6518;50.930;5.344;2024-01-30T03:46:07;6.47;;;5.00;;
12900;SDS011;6518;50.930;5.344;2024-01-30T03:48:35;6.53;;;4.87;;
12900;SDS011;6518;50.930;5.344;2024-01-30T03:51:02;7.83;;;5.23;;
12900;SDS011;6518;50.930;5.344;2024-01-30T03:53:31;5.90;;;4.80;;
12900;SDS011;6518;50.930;5.344;2024-01-30T03:55:58;7.77;;;5.10;;
12900;SDS011;6518;50.930;5.344;2024-01-30T03:58:25;6.80;;;5.47;;
12900;SDS011;6518;50.930;5.344;2024-01-30T04:00:52;6.40;;;5.43;;
12900;SDS011;6518;50.930;5.344;2024-01-30T04:03:19;5.57;;;5.03;;
12900;SDS011;6518;50.930;5.344;2024-01-30T04:05:47;6.83;;;5.23;;
12900;SDS011;6518;50.930;5.344;2024-01-30T04:08:14;6.23;;;4.70;;
12900;SDS011;6518;50.930;5.344;2024-01-30T04:10:41;6.83;;;4.83;;
12900;SDS011;6518;50.930;5.344;2024-01-30T04:13:08;5.20;;;4.57;;
12900;SDS011;6518;50.930;5.344;2024-01-30T04:15:35;6.07;;;4.50;;
12900;SDS011;6518;50.930;5.344;2024-01-30T04:18:02;6.07;;;4.77;;
12900;SDS011;6518;50.930;5.344;2024-01-30T04:20:29;6.27;;;4.90;;
12900;SDS011;6518;50.930;5.344;2024-01-30T04:22:58;6.83;;;4.60;;
12900;SDS011;6518;50.930;5.344;2024-01-30T04:25:24;6.57;;;5.03;;
12900;SDS011;6518;50.930;5.344;2024-01-30T04:27:51;5.47;;;4.80;;
12900;SDS011;6518;50.930;5.344;2024-01-30T04:30:18;6.50;;;4.90;;
12900;SDS011;6518;50.930;5.344;2024-01-30T04:32:45;6.93;;;4.87;;
12900;SDS011;6518;50.930;5.344;2024-01-30T04:35:12;7.90;;;4.90;;
12900;SDS011;6518;50.930;5.344;2024-01-30T04:37:39;7.17;;;4.93;;
12900;SDS011;6518;50.930;5.344;2024-01-30T04:40:08;5.00;;;4.50;;
12900;SDS011;6518;50.930;5.344;2024-01-30T04:42:35;6.03;;;4.67;;
12900;SDS011;6518;50.930;5.344;2024-01-30T04:45:02;7.20;;;4.60;;
12900;SDS011;6518;50.930;5.344;2024-01-30T04:47:29;7.13;;;5.07;;
12900;SDS011;6518;50.930;5.344;2024-01-30T04:49:56;5.97;;;4.67;;
12900;SDS011;6518;50.930;5.344;2024-01-30T04:52:23;8.37;;;5.33;;
12900;SDS011;6518;50.930;5.344;2024-01-30T04:54:50;7.97;;;5.20;;
12900;SDS011;6518;50.930;5.344;2024-01-30T04:57:18;7.40;;;4.93;;
12900;SDS011;6518;50.930;5.344;2024-01-30T04:59:45;6.77;;;5.00;;
12900;SDS011;6518;50.930;5.344;2024-01-30T05:02:12;7.60;;;4.70;;
12900;SDS011;6518;50.930;5.344;2024-01-30T05:04:40;5.73;;;5.00;;
12900;SDS011;6518;50.930;5.344;2024-01-30T05:07:07;9.70;;;4.90;;
12900;SDS011;6518;50.930;5.344;2024-01-30T05:09:34;8.27;;;4.93;;
12900;SDS011;6518;50.930;5.344;2024-01-30T05:12:01;6.33;;;5.07;;
12900;SDS011;6518;50.930;5.344;2024-01-30T05:14:29;6.60;;;4.90;;
12900;SDS011;6518;50.930;5.344;2024-01-30T05:16:56;5.53;;;4.87;;
12900;SDS011;6518;50.930;5.344;2024-01-30T05:19:23;7.77;;;5.30;;
12900;SDS011;6518;50.930;5.344;2024-01-30T05:21:50;8.03;;;4.73;;
12900;SDS011;6518;50.930;5.344;2024-01-30T05:24:17;6.60;;;5.30;;
12900;SDS011;6518;50.930;5.344;2024-01-30T05:26:43;7.10;;;4.77;;
12900;SDS011;6518;50.930;5.344;2024-01-30T05:29:11;6.07;;;5.07;;
12900;SDS011;6518;50.930;5.344;2024-01-30T05:31:39;5.87;;;5.00;;
12900;SDS011;6518;50.930;5.344;2024-01-30T05:34:06;7.07;;;5.30;;
12900;SDS011;6518;50.930;5.344;2024-01-30T05:36:34;6.80;;;4.90;;
12900;SDS011;6518;50.930;5.344;2024-01-30T05:39:01;8.23;;;4.83;;
12900;SDS011;6518;50.930;5.344;2024-01-30T05:41:28;9.83;;;5.03;;
12900;SDS011;6518;50.930;5.344;2024-01-30T05:43:55;6.87;;;5.37;;
12900;SDS011;6518;50.930;5.344;2024-01-30T05:46:22;6.13;;;4.70;;
12900;SDS011;6518;50.930;5.344;2024-01-30T05:48:50;8.00;;;5.40;;
12900;SDS011;6518;50.930;5.344;2024-01-30T05:51:17;6.93;;;5.47;;
12900;SDS011;6518;50.930;5.344;2024-01-30T05:53:44;6.50;;;5.20;;
12900;SDS011;6518;50.930;5.344;2024-01-30T05:56:11;9.97;;;5.87;;
12900;SDS011;6518;50.930;5.344;2024-01-30T05:58:38;7.03;;;5.13;;
12900;SDS011;6518;50.930;5.344;2024-01-30T06:01:06;7.03;;;5.30;;
12900;SDS011;6518;50.930;5.344;2024-01-30T06:03:34;8.33;;;5.00;;
12900;SDS011;6518;50.930;5.344;2024-01-30T06:06:02;8.20;;;5.10;;
12900;SDS011;6518;50.930;5.344;2024-01-30T06:08:30;9.13;;;5.30;;
12900;SDS011;6518;50.930;5.344;2024-01-30T06:10:56;6.93;;;5.10;;
12900;SDS011;6518;50.930;5.344;2024-01-30T06:13:23;7.93;;;5.33;;
12900;SDS011;6518;50.930;5.344;2024-01-30T06:15:51;6.63;;;5.43;;
12900;SDS011;6518;50.930;5.344;2024-01-30T06:18:17;7.73;;;5.50;;
12900;SDS011;6518;50.930;5.344;2024-01-30T06:20:45;5.33;;;4.80;;
12900;SDS011;6518;50.930;5.344;2024-01-30T06:23:14;8.30;;;5.47;;
12900;SDS011;6518;50.930;5.344;2024-01-30T06:25:40;8.93;;;5.23;;
12900;SDS011;6518;50.930;5.344;2024-01-30T06:28:07;8.60;;;5.17;;
12900;SDS011;6518;50.930;5.344;2024-01-30T06:30:34;6.07;;;5.23;;
12900;SDS011;6518;50.930;5.344;2024-01-30T06:33:01;7.20;;;5.83;;
12900;SDS011;6518;50.930;5.344;2024-01-30T06:35:28;7.97;;;5.07;;
12900;SDS011;6518;50.930;5.344;2024-01-30T06:37:55;6.67;;;5.10;;
12900;SDS011;6518;50.930;5.344;2024-01-30T06:40:23;8.73;;;5.80;;
12900;SDS011;6518;50.930;5.344;2024-01-30T06:42:50;7.73;;;5.10;;
12900;SDS011;6518;50.930;5.344;2024-01-30T06:45:17;8.90;;;5.20;;
12900;SDS011;6518;50.930;5.344;2024-01-30T06:47:44;8.77;;;5.30;;
12900;SDS011;6518;50.930;5.344;2024-01-30T06:50:11;9.60;;;5.20;;
12900;SDS011;6518;50.930;5.344;2024-01-30T06:52:38;10.63;;;5.47;;
12900;SDS011;6518;50.930;5.344;2024-01-30T06:55:06;8.10;;;6.00;;
12900;SDS011;6518;50.930;5.344;2024-01-30T06:57:34;8.13;;;5.90;;
12900;SDS011;6518;50.930;5.344;2024-01-30T07:00:01;7.33;;;5.60;;
12900;SDS011;6518;50.930;5.344;2024-01-30T07:02:28;9.03;;;5.40;;
12900;SDS011;6518;50.930;5.344;2024-01-30T07:04:55;8.73;;;6.20;;
12900;SDS011;6518;50.930;5.344;2024-01-30T07:07:22;8.43;;;5.87;;
12900;SDS011;6518;50.930;5.344;2024-01-30T07:09:49;9.10;;;6.10;;
12900;SDS011;6518;50.930;5.344;2024-01-30T07:12:21;6.47;;;5.67;;
12900;SDS011;6518;50.930;5.344;2024-01-30T07:14:51;8.43;;;6.10;;
12900;SDS011;6518;50.930;5.344;2024-01-30T07:17:18;9.47;;;6.13;;
12900;SDS011;6518;50.930;5.344;2024-01-30T07:19:45;8.40;;;5.60;;
12900;SDS011;6518;50.930;5.344;2024-01-30T07:22:12;10.27;;;6.03;;
12900;SDS011;6518;50.930;5.344;2024-01-30T07:24:42;8.63;;;5.93;;
12900;SDS011;6518;50.930;5.344;2024-01-30T07:27:12;6.50;;;5.87;;
12900;SDS011;6518;50.930;5.344;2024-01-30T07:29:39;7.03;;;5.77;;
12900;SDS011;6518;50.930;5.344;2024-01-30T07:32:07;8.50;;;5.23;;
12900;SDS011;6518;50.930;5.344;2024-01-30T07:34:34;9.07;;;6.13;;
12900;SDS011;6518;50.930;5.344;2024-01-30T07:37:02;7.53;;;5.80;;
12900;SDS011;6518;50.930;5.344;2024-01-30T07:39:29;9.23;;;6.20;;
12900;SDS011;6518;50.930;5.344;2024-01-30T07:41:56;10.93;;;5.87;;
12900;SDS011;6518;50.930;5.344;2024-01-30T07:44:23;8.83;;;5.60;;
12900;SDS011;6518;50.930;5.344;2024-01-30T07:46:50;9.30;;;6.43;;
12900;SDS011;6518;50.930;5.344;2024-01-30T07:49:18;8.80;;;5.67;;
12900;SDS011;6518;50.930;5.344;2024-01-30T07:51:45;10.93;;;5.70;;
12900;SDS011;6518;50.930;5.344;2024-01-30T07:54:12;10.80;;;6.27;;
12900;SDS011;6518;50.930;5.344;2024-01-30T07:56:39;9.17;;;6.07;;
12900;SDS011;6518;50.930;5.344;2024-01-30T07:59:09;9.67;;;6.23;;
12900;SDS011;6518;50.930;5.344;2024-01-30T08:01:36;10.23;;;5.70;;
12900;SDS011;6518;50.930;5.344;2024-01-30T08:04:03;10.43;;;6.10;;
12900;SDS011;6518;50.930;5.344;2024-01-30T08:06:32;10.60;;;6.33;;
12900;SDS011;6518;50.930;5.344;2024-01-30T08:08:59;9.63;;;6.27;;
12900;SDS011;6518;50.930;5.344;2024-01-30T08:11:26;7.57;;;5.47;;
12900;SDS011;6518;50.930;5.344;2024-01-30T08:13:54;9.27;;;6.10;;
12900;SDS011;6518;50.930;5.344;2024-01-30T08:16:21;11.23;;;6.00;;
12900;SDS011;6518;50.930;5.344;2024-01-30T08:18:48;9.37;;;6.07;;
12900;SDS011;6518;50.930;5.344;2024-01-30T08:21:15;7.93;;;5.10;;
12900;SDS011;6518;50.930;5.344;2024-01-30T08:23:44;8.73;;;5.73;;
12900;SDS011;6518;50.930;5.344;2024-01-30T08:26:11;11.83;;;5.87;;
12900;SDS011;6518;50.930;5.344;2024-01-30T08:28:38;6.73;;;5.47;;
12900;SDS011;6518;50.930;5.344;2024-01-30T08:31:05;6.10;;;5.43;;
12900;SDS011;6518;50.930;5.344;2024-01-30T08:33:32;8.20;;;5.63;;
12900;SDS011;6518;50.930;5.344;2024-01-30T08:35:58;8.70;;;5.83;;
12900;SDS011;6518;50.930;5.344;2024-01-30T08:38:25;8.77;;;5.60;;
12900;SDS011;6518;50.930;5.344;2024-01-30T08:40:54;8.70;;;5.83;;
12900;SDS011;6518;50.930;5.344;2024-01-30T08:43:21;7.67;;;5.47;;
12900;SDS011;6518;50.930;5.344;2024-01-30T08:45:48;8.87;;;6.03;;
12900;SDS011;6518;50.930;5.344;2024-01-30T08:48:15;9.80;;;5.80;;
12900;SDS011;6518;50.930;5.344;2024-01-30T08:50:42;8.70;;;6.13;;
12900;SDS011;6518;50.930;5.344;2024-01-30T08:53:09;11.60;;;6.03;;
12900;SDS011;6518;50.930;5.344;2024-01-30T08:55:36;12.13;;;6.73;;
12900;SDS011;6518;50.930;5.344;2024-01-30T08:58:05;9.73;;;5.83;;
12900;SDS011;6518;50.930;5.344;2024-01-30T09:00:33;13.07;;;6.33;;
12900;SDS011;6518;50.930;5.344;2024-01-30T09:03:00;10.97;;;6.23;;
12900;SDS011;6518;50.930;5.344;2024-01-30T09:05:27;7.17;;;5.57;;
12900;SDS011;6518;50.930;5.344;2024-01-30T09:07:54;7.80;;;5.80;;
12900;SDS011;6518;50.930;5.344;2024-01-30T09:10:20;7.93;;;5.47;;
12900;SDS011;6518;50.930;5.344;2024-01-30T09:12:47;7.13;;;5.90;;
12900;SDS011;6518;50.930;5.344;2024-01-30T09:15:16;12.00;;;5.70;;
12900;SDS011;6518;50.930;5.344;2024-01-30T09:17:44;7.90;;;5.37;;
12900;SDS011;6518;50.930;5.344;2024-01-30T09:20:11;8.33;;;5.53;;
12900;SDS011;6518;50.930;5.344;2024-01-30T09:22:38;10.60;;;6.07;;
12900;SDS011;6518;50.930;5.344;2024-01-30T09:25:05;7.23;;;5.93;;
12900;SDS011;6518;50.930;5.344;2024-01-30T09:27:32;9.10;;;5.80;;
12900;SDS011;6518;50.930;5.344;2024-01-30T09:29:59;9.63;;;5.93;;
12900;SDS011;6518;50.930;5.344;2024-01-30T09:32:28;6.20;;;5.60;;
12900;SDS011;6518;50.930;5.344;2024-01-30T09:34:55;8.17;;;5.67;;
12900;SDS011;6518;50.930;5.344;2024-01-30T09:37:21;8.83;;;5.03;;
12900;SDS011;6518;50.930;5.344;2024-01-30T09:39:48;7.27;;;5.37;;
12900;SDS011;6518;50.930;5.344;2024-01-30T09:42:17;10.20;;;6.07;;
12900;SDS011;6518;50.930;5.344;2024-01-30T09:44:51;12.90;;;6.30;;
12900;SDS011;6518;50.930;5.344;2024-01-30T09:47:20;8.53;;;5.70;;
12900;SDS011;6518;50.930;5.344;2024-01-30T09:49:49;7.13;;;5.53;;
12900;SDS011;6518;50.930;5.344;2024-01-30T09:52:16;9.80;;;5.73;;
12900;SDS011;6518;50.930;5.344;2024-01-30T09:54:44;12.57;;;6.07;;
12900;SDS011;6518;50.930;5.344;2024-01-30T09:57:12;10.47;;;5.70;;
12900;SDS011;6518;50.930;5.344;2024-01-30T09:59:41;9.20;;;5.87;;
12900;SDS011;6518;50.930;5.344;2024-01-30T10:02:08;11.63;;;6.30;;
12900;SDS011;6518;50.930;5.344;2024-01-30T10:04:36;10.70;;;6.33;;
12900;SDS011;6518;50.930;5.344;2024-01-30T10:07:04;10.57;;;6.20;;
12900;SDS011;6518;50.930;5.344;2024-01-30T10:09:32;10.97;;;6.30;;
12900;SDS011;6518;50.930;5.344;2024-01-30T10:12:00;10.27;;;6.50;;
12900;SDS011;6518;50.930;5.344;2024-01-30T10:14:29;14.87;;;6.00;;
12900;SDS011;6518;50.930;5.344;2024-01-30T10:16:57;9.73;;;6.03;;
12900;SDS011;6518;50.930;5.344;2024-01-30T10:19:24;10.80;;;6.07;;
12900;SDS011;6518;50.930;5.344;2024-01-30T10:21:51;11.57;;;5.40;;
12900;SDS011;6518;50.930;5.344;2024-01-30T10:24:23;11.83;;;6.20;;
12900;SDS011;6518;50.930;5.344;2024-01-30T10:26:50;9.90;;;5.77;;
12900;SDS011;6518;50.930;5.344;2024-01-30T10:29:18;10.87;;;6.27;;
12900;SDS011;6518;50.930;5.344;2024-01-30T10:31:44;12.13;;;6.27;;
12900;SDS011;6518;50.930;5.344;2024-01-30T10:34:12;12.40;;;6.17;;
12900;SDS011;6518;50.930;5.344;2024-01-30T10:36:39;11.87;;;6.30;;
12900;SDS011;6518;50.930;5.344;2024-01-30T10:39:07;10.80;;;6.30;;
12900;SDS011;6518;50.930;5.344;2024-01-30T10:41:43;11.33;;;6.63;;
12900;SDS011;6518;50.930;5.344;2024-01-30T10:44:11;11.23;;;6.17;;
12900;SDS011;6518;50.930;5.344;2024-01-30T10:46:39;11.30;;;6.27;;
12900;SDS011;6518;50.930;5.344;2024-01-30T10:49:09;12.57;;;6.30;;
12900;SDS011;6518;50.930;5.344;2024-01-30T10:51:38;9.00;;;6.50;;
12900;SDS011;6518;50.930;5.344;2024-01-30T10:54:06;12.60;;;6.70;;
12900;SDS011;6518;50.930;5.344;2024-01-30T10:56:34;13.07;;;6.73;;
12900;SDS011;6518;50.930;5.344;2024-01-30T10:59:03;8.30;;;6.43;;
12900;SDS011;6518;50.930;5.344;2024-01-30T11:01:30;13.83;;;7.50;;
12900;SDS011;6518;50.930;5.344;2024-01-30T11:03:57;10.40;;;6.63;;
12900;SDS011;6518;50.930;5.344;2024-01-30T11:06:25;17.13;;;7.33;;
12900;SDS011;6518;50.930;5.344;2024-01-30T11:09:01;17.87;;;7.43;;
12900;SDS011;6518;50.930;5.344;2024-01-30T11:11:32;14.57;;;7.10;;
12900;SDS011;6518;50.930;5.344;2024-01-30T11:14:24;12.63;;;7.57;;
12900;SDS011;6518;50.930;5.344;2024-01-30T11:16:52;13.27;;;7.40;;
12900;SDS011;6518;50.930;5.344;2024-01-30T11:19:22;12.93;;;7.20;;
12900;SDS011;6518;50.930;5.344;2024-01-30T11:21:51;10.57;;;7.10;;
12900;SDS011;6518;50.930;5.344;2024-01-30T11:24:19;12.93;;;6.93;;
12900;SDS011;6518;50.930;5.344;2024-01-30T11:26:48;12.53;;;7.63;;
12900;SDS011;6518;50.930;5.344;2024-01-30T11:29:17;14.37;;;7.60;;
12900;SDS011;6518;50.930;5.344;2024-01-30T11:31:53;14.13;;;7.20;;
12900;SDS011;6518;50.930;5.344;2024-01-30T11:34:20;11.60;;;6.77;;
12900;SDS011;6518;50.930;5.344;2024-01-30T11:36:51;13.63;;;6.93;;
12900;SDS011;6518;50.930;5.344;2024-01-30T11:39:20;16.37;;;7.90;;
12900;SDS011;6518;50.930;5.344;2024-01-30T11:41:47;14.90;;;8.43;;
12900;SDS011;6518;50.930;5.344;2024-01-30T11:44:18;14.87;;;7.97;;
12900;SDS011;6518;50.930;5.344;2024-01-30T11:46:46;14.10;;;8.17;;
12900;SDS011;6518;50.930;5.344;2024-01-30T11:49:13;13.30;;;7.60;;
12900;SDS011;6518;50.930;5.344;2024-01-30T11:51:40;15.37;;;7.70;;
12900;SDS011;6518;50.930;5.344;2024-01-30T11:54:07;16.77;;;7.50;;
12900;SDS011;6518;50.930;5.344;2024-01-30T11:56:34;16.07;;;7.70;;
12900;SDS011;6518;50.930;5.344;2024-01-30T11:59:03;15.13;;;8.53;;
12900;SDS011;6518;50.930;5.344;2024-01-30T12:01:32;12.40;;;7.60;;
12900;SDS011;6518;50.930;5.344;2024-01-30T12:03:59;14.90;;;7.67;;
12900;SDS011;6518;50.930;5.344;2024-01-30T12:06:26;13.17;;;7.20;;
12900;SDS011;6518;50.930;5.344;2024-01-30T12:09:00;11.87;;;8.37;;
12900;SDS011;6518;50.930;5.344;2024-01-30T12:11:29;12.93;;;7.90;;
12900;SDS011;6518;50.930;5.344;2024-01-30T12:13:56;10.37;;;8.07;;
12900;SDS011;6518;50.930;5.344;2024-01-30T12:16:23;15.93;;;8.93;;
12900;SDS011;6518;50.930;5.344;2024-01-30T12:19:00;13.23;;;7.93;;
12900;SDS011;6518;50.930;5.344;2024-01-30T12:21:27;17.87;;;8.20;;
12900;SDS011;6518;50.930;5.344;2024-01-30T12:23:55;14.90;;;8.43;;
12900;SDS011;6518;50.930;5.344;2024-01-30T12:26:23;13.60;;;8.03;;
12900;SDS011;6518;50.930;5.344;2024-01-30T12:28:53;13.67;;;8.23;;
12900;SDS011;6518;50.930;5.344;2024-01-30T12:31:25;11.40;;;7.67;;
12900;SDS011;6518;50.930;5.344;2024-01-30T12:33:52;13.07;;;7.90;;
12900;SDS011;6518;50.930;5.344;2024-01-30T12:36:22;11.27;;;7.60;;
12900;SDS011;6518;50.930;5.344;2024-01-30T12:38:49;15.50;;;8.87;;
12900;SDS011;6518;50.930;5.344;2024-01-30T12:41:16;13.37;;;8.20;;
12900;SDS011;6518;50.930;5.344;2024-01-30T12:43:43;17.63;;;7.60;;
12900;SDS011;6518;50.930;5.344;2024-01-30T12:46:10;11.87;;;7.63;;
12900;SDS011;6518;50.930;5.344;2024-01-30T12:48:37;12.10;;;7.73;;
12900;SDS011;6518;50.930;5.344;2024-01-30T12:51:04;12.23;;;7.03;;
12900;SDS011;6518;50.930;5.344;2024-01-30T12:53:33;11.87;;;6.80;;
12900;SDS011;6518;50.930;5.344;2024-01-30T12:56:00;7.23;;;4.80;;
12900;SDS011;6518;50.930;5.344;2024-01-30T12:58:27;9.47;;;5.27;;
12900;SDS011;6518;50.930;5.344;2024-01-30T13:00:54;11.23;;;4.30;;
12900;SDS011;6518;50.930;5.344;2024-01-30T13:03:21;8.20;;;4.10;;
12900;SDS011;6518;50.930;5.344;2024-01-30T13:05:49;7.40;;;3.50;;
12900;SDS011;6518;50.930;5.344;2024-01-30T13:08:16;11.47;;;7.33;;
12900;SDS011;6518;50.930;5.344;2024-01-30T13:10:44;9.00;;;3.43;;
12900;SDS011;6518;50.930;5.344;2024-01-30T13:13:11;7.67;;;3.50;;
12900;SDS011;6518;50.930;5.344;2024-01-30T13:15:38;8.17;;;3.10;;
12900;SDS011;6518;50.930;5.344;2024-01-30T13:18:05;6.97;;;3.03;;
12900;SDS011;6518;50.930;5.344;2024-01-30T13:20:32;4.67;;;3.23;;
12900;SDS011;6518;50.930;5.344;2024-01-30T13:22:59;6.17;;;2.80;;
12900;SDS011;6518;50.930;5.344;2024-01-30T13:25:26;6.80;;;2.50;;
12900;SDS011;6518;50.930;5.344;2024-01-30T13:27:54;5.47;;;2.10;;
12900;SDS011;6518;50.930;5.344;2024-01-30T13:30:21;3.87;;;2.20;;
12900;SDS011;6518;50.930;5.344;2024-01-30T13:32:48;5.37;;;2.07;;
12900;SDS011;6518;50.930;5.344;2024-01-30T13:35:15;5.00;;;2.37;;
12900;SDS011;6518;50.930;5.344;2024-01-30T13:37:42;3.83;;;1.87;;
12900;SDS011;6518;50.930;5.344;2024-01-30T13:40:09;4.57;;;2.30;;
12900;SDS011;6518;50.930;5.344;2024-01-30T13:42:38;4.37;;;2.07;;
12900;SDS011;6518;50.930;5.344;2024-01-30T13:45:06;4.80;;;1.90;;
12900;SDS011;6518;50.930;5.344;2024-01-30T13:47:35;3.33;;;1.60;;
12900;SDS011;6518;50.930;5.344;2024-01-30T13:50:02;3.23;;;1.70;;
12900;SDS011;6518;50.930;5.344;2024-01-30T13:52:29;4.30;;;1.73;;
12900;SDS011;6518;50.930;5.344;2024-01-30T13:54:56;2.63;;;1.57;;
12900;SDS011;6518;50.930;5.344;2024-01-30T13:57:23;2.80;;;1.60;;
12900;SDS011;6518;50.930;5.344;2024-01-30T13:59:50;1.57;;;1.00;;
12900;SDS011;6518;50.930;5.344;2024-01-30T14:02:18;2.37;;;1.33;;
12900;SDS011;6518;50.930;5.344;2024-01-30T14:04:45;1.77;;;1.10;;
12900;SDS011;6518;50.930;5.344;2024-01-30T14:07:12;1.60;;;0.77;;
12900;SDS011;6518;50.930;5.344;2024-01-30T14:09:39;1.40;;;0.80;;
12900;SDS011;6518;50.930;5.344;2024-01-30T14:12:06;3.23;;;0.87;;
12900;SDS011;6518;50.930;5.344;2024-01-30T14:14:33;4.80;;;0.80;;
12900;SDS011;6518;50.930;5.344;2024-01-30T14:17:00;9.07;;;4.63;;
12900;SDS011;6518;50.930;5.344;2024-01-30T14:19:29;2.27;;;1.13;;
12900;SDS011;6518;50.930;5.344;2024-01-30T14:21:56;4.87;;;1.60;;
12900;SDS011;6518;50.930;5.344;2024-01-30T14:24:23;2.97;;;0.90;;
12900;SDS011;6518;50.930;5.344;2024-01-30T14:26:50;2.33;;;0.90;;
12900;SDS011;6518;50.930;5.344;2024-01-30T14:29:18;1.57;;;0.70;;
12900;SDS011;6518;50.930;5.344;2024-01-30T14:31:45;1.77;;;0.60;;
12900;SDS011;6518;50.930;5.344;2024-01-30T14:34:13;2.67;;;1.00;;
12900;SDS011;6518;50.930;5.344;2024-01-30T14:36:41;2.50;;;0.90;;
12900;SDS011;6518;50.930;5.344;2024-01-30T14:39:08;2.90;;;0.77;;
12900;SDS011;6518;50.930;5.344;2024-01-30T14:41:35;6.33;;;0.87;;
12900;SDS011;6518;50.930;5.344;2024-01-30T14:44:02;1.93;;;0.80;;
12900;SDS011;6518;50.930;5.344;2024-01-30T14:46:30;3.17;;;0.80;;
12900;SDS011;6518;50.930;5.344;2024-01-30T14:48:57;4.07;;;1.33;;
12900;SDS011;6518;50.930;5.344;2024-01-30T14:51:25;7.20;;;1.10;;
12900;SDS011;6518;50.930;5.344;2024-01-30T14:53:53;4.37;;;1.00;;
12900;SDS011;6518;50.930;5.344;2024-01-30T14:56:20;3.33;;;1.00;;
12900;SDS011;6518;50.930;5.344;2024-01-30T14:58:47;3.67;;;0.80;;